sensor_id;sensor_type;location;lat;lon;timestamp;temperature;humidity
26270;DHT22;15937;50.612;6.656;2023-08-01T00:03:05;17.10;99.90
26270;DHT22;15937;50.612;6.656;2023-08-01T00:07:07;17.10;99.90
26270;DHT22;15937;50.612;6.656;2023-08-01T00:11:09;17.10;99.90
26270;DHT22;15937;50.612;6.656;2023-08-01T00:15:11;17.10;99.90
26270;DHT22;15937;50.612;6.656;2023-08-01T00:19:13;17.30;99.90
26270;DHT22;15937;50.612;6.656;2023-08-01T00:23:15;17.40;99.90
26270;DHT22;15937;50.612;6.656;2023-08-01T00:27:16;17.30;99.90
26270;DHT22;15937;50.612;6.656;2023-08-01T00:31:18;17.40;99.90
26270;DHT22;15937;50.612;6.656;2023-08-01T00:35:20;17.40;99.90
26270;DHT22;15937;50.612;6.656;2023-08-01T00:39:22;17.40;99.90
26270;DHT22;15937;50.612;6.656;2023-08-01T00:43:24;17.40;99.90
26270;DHT22;15937;50.612;6.656;2023-08-01T00:47:25;17.40;99.90
26270;DHT22;15937;50.612;6.656;2023-08-01T00:51:27;17.40;99.90
26270;DHT22;15937;50.612;6.656;2023-08-01T00:55:32;17.50;99.90
26270;DHT22;15937;50.612;6.656;2023-08-01T00:59:35;17.40;99.90
26270;DHT22;15937;50.612;6.656;2023-08-01T01:03:37;17.50;99.90
26270;DHT22;15937;50.612;6.656;2023-08-01T01:07:39;17.50;99.90
26270;DHT22;15937;50.612;6.656;2023-08-01T01:11:41;17.60;99.90
26270;DHT22;15937;50.612;6.656;2023-08-01T01:15:43;17.50;99.90
26270;DHT22;15937;50.612;6.656;2023-08-01T01:19:45;17.60;99.90
26270;DHT22;15937;50.612;6.656;2023-08-01T01:23:47;17.50;99.90
26270;DHT22;15937;50.612;6.656;2023-08-01T01:27:51;17.50;99.90
26270;DHT22;15937;50.612;6.656;2023-08-01T01:31:55;17.50;99.90
26270;DHT22;15937;50.612;6.656;2023-08-01T01:35:59;17.30;99.90
26270;DHT22;15937;50.612;6.656;2023-08-01T01:40:01;17.20;99.90
26270;DHT22;15937;50.612;6.656;2023-08-01T01:44:03;17.20;99.90
26270;DHT22;15937;50.612;6.656;2023-08-01T01:48:05;17.20;99.90
26270;DHT22;15937;50.612;6.656;2023-08-01T01:52:06;17.20;99.90
26270;DHT22;15937;50.612;6.656;2023-08-01T01:56:09;17.40;99.90
26270;DHT22;15937;50.612;6.656;2023-08-01T02:00:11;17.30;99.90
26270;DHT22;15937;50.612;6.656;2023-08-01T02:04:13;17.20;99.90
26270;DHT22;15937;50.612;6.656;2023-08-01T02:08:15;17.00;99.90
26270;DHT22;15937;50.612;6.656;2023-08-01T02:12:17;17.00;99.90
26270;DHT22;15937;50.612;6.656;2023-08-01T02:16:18;16.90;99.90
26270;DHT22;15937;50.612;6.656;2023-08-01T02:20:20;16.90;99.90
26270;DHT22;15937;50.612;6.656;2023-08-01T02:24:22;17.00;99.90
26270;DHT22;15937;50.612;6.656;2023-08-01T02:28:24;16.80;99.90
26270;DHT22;15937;50.612;6.656;2023-08-01T02:32:26;16.80;99.90
26270;DHT22;15937;50.612;6.656;2023-08-01T02:36:29;16.90;99.90
26270;DHT22;15937;50.612;6.656;2023-08-01T02:40:31;16.80;99.90
26270;DHT22;15937;50.612;6.656;2023-08-01T02:44:32;16.50;99.90
26270;DHT22;15937;50.612;6.656;2023-08-01T02:48:34;16.10;99.90
26270;DHT22;15937;50.612;6.656;2023-08-01T02:52:37;15.90;99.90
26270;DHT22;15937;50.612;6.656;2023-08-01T02:56:39;15.90;99.90
26270;DHT22;15937;50.612;6.656;2023-08-01T03:00:43;15.60;99.90
26270;DHT22;15937;50.612;6.656;2023-08-01T03:04:45;15.60;99.90
26270;DHT22;15937;50.612;6.656;2023-08-01T03:08:47;15.60;99.90
26270;DHT22;15937;50.612;6.656;2023-08-01T03:12:49;15.60;99.90
26270;DHT22;15937;50.612;6.656;2023-08-01T03:16:51;15.60;99.90
26270;DHT22;15937;50.612;6.656;2023-08-01T03:20:53;15.70;99.90
26270;DHT22;15937;50.612;6.656;2023-08-01T03:24:55;15.70;99.90
26270;DHT22;15937;50.612;6.656;2023-08-01T03:28:56;15.70;99.90
26270;DHT22;15937;50.612;6.656;2023-08-01T03:32:59;15.60;99.90
26270;DHT22;15937;50.612;6.656;2023-08-01T03:37:01;15.60;99.90
26270;DHT22;15937;50.612;6.656;2023-08-01T03:41:02;15.70;99.90
26270;DHT22;15937;50.612;6.656;2023-08-01T03:45:06;15.70;99.90
26270;DHT22;15937;50.612;6.656;2023-08-01T03:49:08;15.60;99.90
26270;DHT22;15937;50.612;6.656;2023-08-01T03:53:10;15.70;99.90
26270;DHT22;15937;50.612;6.656;2023-08-01T03:57:12;15.80;99.90
26270;DHT22;15937;50.612;6.656;2023-08-01T04:01:14;15.80;99.90
26270;DHT22;15937;50.612;6.656;2023-08-01T04:05:16;15.60;99.90
26270;DHT22;15937;50.612;6.656;2023-08-01T04:09:18;15.60;99.90
26270;DHT22;15937;50.612;6.656;2023-08-01T04:13:20;15.70;99.90
26270;DHT22;15937;50.612;6.656;2023-08-01T04:17:22;15.80;99.90
26270;DHT22;15937;50.612;6.656;2023-08-01T04:21:24;15.80;99.90
26270;DHT22;15937;50.612;6.656;2023-08-01T04:25:26;15.70;99.90
26270;DHT22;15937;50.612;6.656;2023-08-01T04:29:28;15.70;99.90
26270;DHT22;15937;50.612;6.656;2023-08-01T04:33:30;15.60;99.90
26270;DHT22;15937;50.612;6.656;2023-08-01T04:37:32;15.50;99.90
26270;DHT22;15937;50.612;6.656;2023-08-01T04:41:33;15.60;99.90
26270;DHT22;15937;50.612;6.656;2023-08-01T04:45:36;15.50;99.90
26270;DHT22;15937;50.612;6.656;2023-08-01T04:49:38;15.50;99.90
26270;DHT22;15937;50.612;6.656;2023-08-01T04:53:40;15.60;99.90
26270;DHT22;15937;50.612;6.656;2023-08-01T04:57:41;15.30;99.90
26270;DHT22;15937;50.612;6.656;2023-08-01T05:01:44;15.40;99.90
26270;DHT22;15937;50.612;6.656;2023-08-01T05:05:46;15.50;99.90
26270;DHT22;15937;50.612;6.656;2023-08-01T05:09:47;15.40;99.90
26270;DHT22;15937;50.612;6.656;2023-08-01T05:13:49;15.50;99.90
26270;DHT22;15937;50.612;6.656;2023-08-01T05:17:52;15.60;99.90
26270;DHT22;15937;50.612;6.656;2023-08-01T05:21:54;15.50;99.90
26270;DHT22;15937;50.612;6.656;2023-08-01T05:25:56;15.60;99.90
26270;DHT22;15937;50.612;6.656;2023-08-01T05:29:58;15.60;99.90
26270;DHT22;15937;50.612;6.656;2023-08-01T05:34:00;15.50;99.90
26270;DHT22;15937;50.612;6.656;2023-08-01T05:38:01;15.50;99.90
26270;DHT22;15937;50.612;6.656;2023-08-01T05:42:04;15.50;99.90
26270;DHT22;15937;50.612;6.656;2023-08-01T05:46:10;15.50;99.90
26270;DHT22;15937;50.612;6.656;2023-08-01T05:50:12;15.60;99.90
26270;DHT22;15937;50.612;6.656;2023-08-01T05:54:14;15.60;99.90
26270;DHT22;15937;50.612;6.656;2023-08-01T05:58:16;15.50;99.90
26270;DHT22;15937;50.612;6.656;2023-08-01T06:02:18;15.80;99.90
26270;DHT22;15937;50.612;6.656;2023-08-01T06:06:19;15.80;99.90
26270;DHT22;15937;50.612;6.656;2023-08-01T06:10:22;16.00;99.90
26270;DHT22;15937;50.612;6.656;2023-08-01T06:14:24;16.10;99.90
26270;DHT22;15937;50.612;6.656;2023-08-01T06:18:26;16.40;99.90
26270;DHT22;15937;50.612;6.656;2023-08-01T06:22:28;16.40;99.90
26270;DHT22;15937;50.612;6.656;2023-08-01T06:26:29;16.50;99.90
26270;DHT22;15937;50.612;6.656;2023-08-01T06:30:31;16.50;99.90
26270;DHT22;15937;50.612;6.656;2023-08-01T06:34:33;16.50;99.90
26270;DHT22;15937;50.612;6.656;2023-08-01T06:38:35;16.50;99.90
26270;DHT22;15937;50.612;6.656;2023-08-01T06:42:36;16.50;99.90
26270;DHT22;15937;50.612;6.656;2023-08-01T06:46:38;16.20;99.90
26270;DHT22;15937;50.612;6.656;2023-08-01T06:50:40;16.20;99.90
26270;DHT22;15937;50.612;6.656;2023-08-01T06:54:42;16.40;99.90
26270;DHT22;15937;50.612;6.656;2023-08-01T06:58:44;16.20;99.90
26270;DHT22;15937;50.612;6.656;2023-08-01T07:02:46;16.50;99.90
26270;DHT22;15937;50.612;6.656;2023-08-01T07:06:48;16.40;99.90
26270;DHT22;15937;50.612;6.656;2023-08-01T07:10:50;16.40;99.90
26270;DHT22;15937;50.612;6.656;2023-08-01T07:14:52;16.40;99.90
26270;DHT22;15937;50.612;6.656;2023-08-01T07:18:55;16.60;99.90
26270;DHT22;15937;50.612;6.656;2023-08-01T07:22:57;16.50;99.90
26270;DHT22;15937;50.612;6.656;2023-08-01T07:26:59;16.90;99.90
26270;DHT22;15937;50.612;6.656;2023-08-01T07:31:06;16.90;99.90
26270;DHT22;15937;50.612;6.656;2023-08-01T07:35:08;17.40;99.90
26270;DHT22;15937;50.612;6.656;2023-08-01T07:39:10;17.40;99.90
26270;DHT22;15937;50.612;6.656;2023-08-01T07:43:12;17.10;99.90
26270;DHT22;15937;50.612;6.656;2023-08-01T07:47:14;17.00;99.90
26270;DHT22;15937;50.612;6.656;2023-08-01T07:51:16;16.60;99.90
26270;DHT22;15937;50.612;6.656;2023-08-01T07:55:18;16.70;99.90
26270;DHT22;15937;50.612;6.656;2023-08-01T07:59:20;17.20;99.90
26270;DHT22;15937;50.612;6.656;2023-08-01T08:03:21;17.60;99.90
26270;DHT22;15937;50.612;6.656;2023-08-01T08:07:25;17.50;99.90
26270;DHT22;15937;50.612;6.656;2023-08-01T08:11:26;17.10;99.90
26270;DHT22;15937;50.612;6.656;2023-08-01T08:15:28;17.60;99.90
26270;DHT22;15937;50.612;6.656;2023-08-01T08:19:35;17.50;99.90
26270;DHT22;15937;50.612;6.656;2023-08-01T08:23:38;17.50;99.90
26270;DHT22;15937;50.612;6.656;2023-08-01T08:27:39;17.70;99.90
26270;DHT22;15937;50.612;6.656;2023-08-01T08:31:41;17.50;99.90
26270;DHT22;15937;50.612;6.656;2023-08-01T08:35:43;17.10;99.90
26270;DHT22;15937;50.612;6.656;2023-08-01T08:39:45;17.70;99.90
26270;DHT22;15937;50.612;6.656;2023-08-01T08:43:48;18.10;99.90
26270;DHT22;15937;50.612;6.656;2023-08-01T08:47:55;18.50;99.90
26270;DHT22;15937;50.612;6.656;2023-08-01T08:51:57;18.40;99.90
26270;DHT22;15937;50.612;6.656;2023-08-01T08:56:01;18.10;99.90
26270;DHT22;15937;50.612;6.656;2023-08-01T09:00:04;18.60;99.90
26270;DHT22;15937;50.612;6.656;2023-08-01T09:04:07;18.30;99.90
26270;DHT22;15937;50.612;6.656;2023-08-01T09:08:17;17.50;99.90
26270;DHT22;15937;50.612;6.656;2023-08-01T09:12:21;17.60;99.90
26270;DHT22;15937;50.612;6.656;2023-08-01T09:16:23;17.80;99.90
26270;DHT22;15937;50.612;6.656;2023-08-01T09:20:25;18.50;99.90
26270;DHT22;15937;50.612;6.656;2023-08-01T09:24:27;18.70;99.90
26270;DHT22;15937;50.612;6.656;2023-08-01T09:28:29;18.70;99.90
26270;DHT22;15937;50.612;6.656;2023-08-01T09:32:31;18.10;99.90
26270;DHT22;15937;50.612;6.656;2023-08-01T09:36:33;17.80;99.90
26270;DHT22;15937;50.612;6.656;2023-08-01T09:40:39;17.60;99.90
26270;DHT22;15937;50.612;6.656;2023-08-01T09:44:45;18.20;99.90
26270;DHT22;15937;50.612;6.656;2023-08-01T09:48:48;18.40;99.90
26270;DHT22;15937;50.612;6.656;2023-08-01T09:52:50;18.90;99.90
26270;DHT22;15937;50.612;6.656;2023-08-01T09:56:55;18.60;99.90
26270;DHT22;15937;50.612;6.656;2023-08-01T10:00:58;19.30;99.90
26270;DHT22;15937;50.612;6.656;2023-08-01T10:05:00;19.30;99.90
26270;DHT22;15937;50.612;6.656;2023-08-01T10:09:02;19.10;99.90
26270;DHT22;15937;50.612;6.656;2023-08-01T10:13:05;19.20;99.90
26270;DHT22;15937;50.612;6.656;2023-08-01T10:17:07;18.80;99.90
26270;DHT22;15937;50.612;6.656;2023-08-01T10:21:15;19.10;99.90
26270;DHT22;15937;50.612;6.656;2023-08-01T10:25:18;19.90;99.90
26270;DHT22;15937;50.612;6.656;2023-08-01T10:29:21;19.40;99.90
26270;DHT22;15937;50.612;6.656;2023-08-01T10:33:33;19.70;99.90
26270;DHT22;15937;50.612;6.656;2023-08-01T10:37:45;19.50;99.90
26270;DHT22;15937;50.612;6.656;2023-08-01T10:41:57;19.90;99.90
26270;DHT22;15937;50.612;6.656;2023-08-01T10:46:03;20.10;99.90
26270;DHT22;15937;50.612;6.656;2023-08-01T10:50:13;20.40;99.90
26270;DHT22;15937;50.612;6.656;2023-08-01T10:58:26;20.70;99.90
26270;DHT22;15937;50.612;6.656;2023-08-01T11:02:30;20.60;99.90
26270;DHT22;15937;50.612;6.656;2023-08-01T11:06:49;20.40;99.90
26270;DHT22;15937;50.612;6.656;2023-08-01T11:10:51;20.00;99.90
26270;DHT22;15937;50.612;6.656;2023-08-01T11:15:02;20.00;99.90
26270;DHT22;15937;50.612;6.656;2023-08-01T11:23:14;19.50;99.90
26270;DHT22;15937;50.612;6.656;2023-08-01T11:27:15;19.40;99.90
26270;DHT22;15937;50.612;6.656;2023-08-01T11:31:18;19.00;99.90
26270;DHT22;15937;50.612;6.656;2023-08-01T11:35:21;19.30;99.90
26270;DHT22;15937;50.612;6.656;2023-08-01T11:39:22;19.30;99.90
26270;DHT22;15937;50.612;6.656;2023-08-01T11:43:24;20.20;99.90
26270;DHT22;15937;50.612;6.656;2023-08-01T11:47:26;20.50;99.90
26270;DHT22;15937;50.612;6.656;2023-08-01T11:51:28;20.60;99.90
26270;DHT22;15937;50.612;6.656;2023-08-01T11:55:35;20.40;99.90
26270;DHT22;15937;50.612;6.656;2023-08-01T11:59:46;20.30;99.90
26270;DHT22;15937;50.612;6.656;2023-08-01T12:03:53;20.20;99.90
26270;DHT22;15937;50.612;6.656;2023-08-01T12:07:56;19.70;99.90
26270;DHT22;15937;50.612;6.656;2023-08-01T12:11:59;19.90;99.90
26270;DHT22;15937;50.612;6.656;2023-08-01T12:16:04;20.20;99.90
26270;DHT22;15937;50.612;6.656;2023-08-01T12:20:06;19.40;99.90
26270;DHT22;15937;50.612;6.656;2023-08-01T12:24:08;18.60;99.90
26270;DHT22;15937;50.612;6.656;2023-08-01T12:28:10;18.90;99.90
26270;DHT22;15937;50.612;6.656;2023-08-01T12:32:11;18.90;99.90
26270;DHT22;15937;50.612;6.656;2023-08-01T12:36:15;19.50;99.90
26270;DHT22;15937;50.612;6.656;2023-08-01T12:40:19;18.80;99.90
26270;DHT22;15937;50.612;6.656;2023-08-01T12:44:21;19.50;99.90
26270;DHT22;15937;50.612;6.656;2023-08-01T12:48:23;19.30;99.90
26270;DHT22;15937;50.612;6.656;2023-08-01T12:52:25;19.60;99.90
26270;DHT22;15937;50.612;6.656;2023-08-01T12:56:27;19.60;99.90
26270;DHT22;15937;50.612;6.656;2023-08-01T13:00:32;20.00;99.90
26270;DHT22;15937;50.612;6.656;2023-08-01T13:04:34;19.80;99.90
26270;DHT22;15937;50.612;6.656;2023-08-01T13:08:36;19.70;99.90
26270;DHT22;15937;50.612;6.656;2023-08-01T13:12:37;20.40;99.90
26270;DHT22;15937;50.612;6.656;2023-08-01T13:16:39;20.10;99.90
26270;DHT22;15937;50.612;6.656;2023-08-01T13:20:41;20.30;99.90
26270;DHT22;15937;50.612;6.656;2023-08-01T13:24:45;20.50;99.90
26270;DHT22;15937;50.612;6.656;2023-08-01T13:28:47;20.20;99.90
26270;DHT22;15937;50.612;6.656;2023-08-01T13:32:49;19.80;99.90
26270;DHT22;15937;50.612;6.656;2023-08-01T13:36:51;19.60;99.90
26270;DHT22;15937;50.612;6.656;2023-08-01T13:40:54;19.90;99.90
26270;DHT22;15937;50.612;6.656;2023-08-01T13:44:56;19.50;99.90
26270;DHT22;15937;50.612;6.656;2023-08-01T13:48:58;19.70;99.90
26270;DHT22;15937;50.612;6.656;2023-08-01T13:53:00;19.70;99.90
26270;DHT22;15937;50.612;6.656;2023-08-01T13:57:02;19.50;99.90
26270;DHT22;15937;50.612;6.656;2023-08-01T14:01:04;19.30;99.90
26270;DHT22;15937;50.612;6.656;2023-08-01T14:05:08;19.10;99.90
26270;DHT22;15937;50.612;6.656;2023-08-01T14:09:10;18.70;99.90
26270;DHT22;15937;50.612;6.656;2023-08-01T14:13:12;18.80;99.90
26270;DHT22;15937;50.612;6.656;2023-08-01T14:17:14;18.90;99.90
26270;DHT22;15937;50.612;6.656;2023-08-01T14:21:16;19.10;99.90
26270;DHT22;15937;50.612;6.656;2023-08-01T14:25:20;19.30;99.90
26270;DHT22;15937;50.612;6.656;2023-08-01T14:29:24;19.50;99.90
26270;DHT22;15937;50.612;6.656;2023-08-01T14:33:27;19.70;99.90
26270;DHT22;15937;50.612;6.656;2023-08-01T14:37:40;20.00;99.90
26270;DHT22;15937;50.612;6.656;2023-08-01T14:41:46;20.20;99.90
26270;DHT22;15937;50.612;6.656;2023-08-01T14:46:06;20.00;99.90
26270;DHT22;15937;50.612;6.656;2023-08-01T14:50:16;20.00;99.90
26270;DHT22;15937;50.612;6.656;2023-08-01T14:54:28;20.00;99.90
26270;DHT22;15937;50.612;6.656;2023-08-01T14:58:55;20.50;99.90
26270;DHT22;15937;50.612;6.656;2023-08-01T15:02:59;20.40;99.90
26270;DHT22;15937;50.612;6.656;2023-08-01T15:07:09;20.50;99.90
26270;DHT22;15937;50.612;6.656;2023-08-01T15:11:15;20.40;99.90
26270;DHT22;15937;50.612;6.656;2023-08-01T15:15:17;19.70;99.90
26270;DHT22;15937;50.612;6.656;2023-08-01T15:19:19;19.70;99.90
26270;DHT22;15937;50.612;6.656;2023-08-01T15:23:21;19.80;99.90
26270;DHT22;15937;50.612;6.656;2023-08-01T15:27:28;20.50;99.90
26270;DHT22;15937;50.612;6.656;2023-08-01T15:31:30;20.10;99.90
26270;DHT22;15937;50.612;6.656;2023-08-01T15:35:32;19.90;99.90
26270;DHT22;15937;50.612;6.656;2023-08-01T15:39:34;19.70;99.90
26270;DHT22;15937;50.612;6.656;2023-08-01T15:43:40;19.50;99.90
26270;DHT22;15937;50.612;6.656;2023-08-01T15:47:45;19.40;99.90
26270;DHT22;15937;50.612;6.656;2023-08-01T15:51:47;18.50;99.90
26270;DHT22;15937;50.612;6.656;2023-08-01T15:56:00;17.90;99.90
26270;DHT22;15937;50.612;6.656;2023-08-01T16:00:05;17.80;99.90
26270;DHT22;15937;50.612;6.656;2023-08-01T16:04:07;17.80;99.90
26270;DHT22;15937;50.612;6.656;2023-08-01T16:08:13;17.90;99.90
26270;DHT22;15937;50.612;6.656;2023-08-01T16:12:18;18.10;99.90
26270;DHT22;15937;50.612;6.656;2023-08-01T16:16:20;18.20;99.90
26270;DHT22;15937;50.612;6.656;2023-08-01T16:20:22;18.00;99.90
26270;DHT22;15937;50.612;6.656;2023-08-01T16:24:30;18.40;99.90
26270;DHT22;15937;50.612;6.656;2023-08-01T16:28:32;18.60;99.90
26270;DHT22;15937;50.612;6.656;2023-08-01T16:32:35;19.10;99.90
26270;DHT22;15937;50.612;6.656;2023-08-01T16:36:38;19.20;99.90
26270;DHT22;15937;50.612;6.656;2023-08-01T16:40:40;19.70;99.90
26270;DHT22;15937;50.612;6.656;2023-08-01T16:44:48;20.20;99.90
26270;DHT22;15937;50.612;6.656;2023-08-01T16:48:52;20.30;99.90
26270;DHT22;15937;50.612;6.656;2023-08-01T16:52:54;19.80;99.90
26270;DHT22;15937;50.612;6.656;2023-08-01T16:56:58;19.30;99.90
26270;DHT22;15937;50.612;6.656;2023-08-01T17:00:59;19.10;99.90
26270;DHT22;15937;50.612;6.656;2023-08-01T17:05:02;19.30;99.90
26270;DHT22;15937;50.612;6.656;2023-08-01T17:09:04;19.10;99.90
26270;DHT22;15937;50.612;6.656;2023-08-01T17:13:11;19.20;99.90
26270;DHT22;15937;50.612;6.656;2023-08-01T17:17:12;19.10;99.90
26270;DHT22;15937;50.612;6.656;2023-08-01T17:21:14;19.00;99.90
26270;DHT22;15937;50.612;6.656;2023-08-01T17:25:19;19.00;99.90
26270;DHT22;15937;50.612;6.656;2023-08-01T17:29:21;18.80;99.90
26270;DHT22;15937;50.612;6.656;2023-08-01T17:33:23;18.70;99.90
26270;DHT22;15937;50.612;6.656;2023-08-01T17:37:25;18.80;99.90
26270;DHT22;15937;50.612;6.656;2023-08-01T17:41:34;18.70;99.90
26270;DHT22;15937;50.612;6.656;2023-08-01T17:45:38;18.40;99.90
26270;DHT22;15937;50.612;6.656;2023-08-01T17:49:42;18.30;99.90
26270;DHT22;15937;50.612;6.656;2023-08-01T17:53:45;17.90;99.90
26270;DHT22;15937;50.612;6.656;2023-08-01T17:57:47;17.70;99.90
26270;DHT22;15937;50.612;6.656;2023-08-01T18:01:49;17.60;99.90
26270;DHT22;15937;50.612;6.656;2023-08-01T18:06:11;17.60;99.90
26270;DHT22;15937;50.612;6.656;2023-08-01T18:10:16;17.50;99.90
26270;DHT22;15937;50.612;6.656;2023-08-01T18:14:18;17.40;99.90
26270;DHT22;15937;50.612;6.656;2023-08-01T18:18:20;17.70;99.90
26270;DHT22;15937;50.612;6.656;2023-08-01T18:22:22;17.80;99.90
26270;DHT22;15937;50.612;6.656;2023-08-01T18:26:24;18.00;99.90
26270;DHT22;15937;50.612;6.656;2023-08-01T18:30:30;18.00;99.90
26270;DHT22;15937;50.612;6.656;2023-08-01T18:34:34;18.00;99.90
26270;DHT22;15937;50.612;6.656;2023-08-01T18:38:39;18.10;99.90
26270;DHT22;15937;50.612;6.656;2023-08-01T18:42:41;17.30;99.90
26270;DHT22;15937;50.612;6.656;2023-08-01T18:46:43;17.20;99.90
26270;DHT22;15937;50.612;6.656;2023-08-01T18:50:45;17.10;99.90
26270;DHT22;15937;50.612;6.656;2023-08-01T18:54:51;17.10;99.90
26270;DHT22;15937;50.612;6.656;2023-08-01T18:58:53;17.30;99.90
26270;DHT22;15937;50.612;6.656;2023-08-01T19:02:58;17.30;99.90
26270;DHT22;15937;50.612;6.656;2023-08-01T19:07:00;17.30;99.90
26270;DHT22;15937;50.612;6.656;2023-08-01T19:11:02;17.30;99.90
26270;DHT22;15937;50.612;6.656;2023-08-01T19:15:04;17.30;99.90
26270;DHT22;15937;50.612;6.656;2023-08-01T19:19:10;17.40;99.90
26270;DHT22;15937;50.612;6.656;2023-08-01T19:23:12;17.30;99.90
26270;DHT22;15937;50.612;6.656;2023-08-01T19:27:14;17.20;99.90
26270;DHT22;15937;50.612;6.656;2023-08-01T19:31:16;17.10;99.90
26270;DHT22;15937;50.612;6.656;2023-08-01T19:35:20;17.10;99.90
26270;DHT22;15937;50.612;6.656;2023-08-01T19:39:32;17.10;99.90
26270;DHT22;15937;50.612;6.656;2023-08-01T19:43:37;17.10;99.90
26270;DHT22;15937;50.612;6.656;2023-08-01T19:47:39;17.00;99.90
26270;DHT22;15937;50.612;6.656;2023-08-01T19:51:41;17.00;99.90
26270;DHT22;15937;50.612;6.656;2023-08-01T19:55:44;17.00;99.90
26270;DHT22;15937;50.612;6.656;2023-08-01T19:59:46;16.90;99.90
26270;DHT22;15937;50.612;6.656;2023-08-01T20:03:49;16.90;99.90
26270;DHT22;15937;50.612;6.656;2023-08-01T20:07:53;16.70;99.90
26270;DHT22;15937;50.612;6.656;2023-08-01T20:11:59;16.80;99.90
26270;DHT22;15937;50.612;6.656;2023-08-01T20:16:02;16.80;99.90
26270;DHT22;15937;50.612;6.656;2023-08-01T20:20:04;16.90;99.90
26270;DHT22;15937;50.612;6.656;2023-08-01T20:24:09;16.80;99.90
26270;DHT22;15937;50.612;6.656;2023-08-01T20:28:14;16.80;99.90
26270;DHT22;15937;50.612;6.656;2023-08-01T20:32:22;16.80;99.90
26270;DHT22;15937;50.612;6.656;2023-08-01T20:36:24;16.90;99.90
26270;DHT22;15937;50.612;6.656;2023-08-01T20:40:26;16.90;99.90
26270;DHT22;15937;50.612;6.656;2023-08-01T20:44:27;16.80;99.90
26270;DHT22;15937;50.612;6.656;2023-08-01T20:48:29;16.80;99.90
26270;DHT22;15937;50.612;6.656;2023-08-01T20:52:31;16.80;99.90
26270;DHT22;15937;50.612;6.656;2023-08-01T20:56:33;16.90;99.90
26270;DHT22;15937;50.612;6.656;2023-08-01T21:00:34;16.90;99.90
26270;DHT22;15937;50.612;6.656;2023-08-01T21:04:36;16.90;99.90
26270;DHT22;15937;50.612;6.656;2023-08-01T21:08:38;16.90;99.90
26270;DHT22;15937;50.612;6.656;2023-08-01T21:12:41;16.90;99.90
26270;DHT22;15937;50.612;6.656;2023-08-01T21:16:42;17.00;99.90
26270;DHT22;15937;50.612;6.656;2023-08-01T21:20:45;17.00;99.90
26270;DHT22;15937;50.612;6.656;2023-08-01T21:24:46;17.00;99.90
26270;DHT22;15937;50.612;6.656;2023-08-01T21:28:48;17.00;99.90
26270;DHT22;15937;50.612;6.656;2023-08-01T21:32:50;17.00;99.90
26270;DHT22;15937;50.612;6.656;2023-08-01T21:36:52;17.00;99.90
26270;DHT22;15937;50.612;6.656;2023-08-01T21:40:53;17.00;99.90
26270;DHT22;15937;50.612;6.656;2023-08-01T21:44:55;17.00;99.90
26270;DHT22;15937;50.612;6.656;2023-08-01T21:48:57;17.00;99.90
26270;DHT22;15937;50.612;6.656;2023-08-01T21:52:58;16.90;99.90
26270;DHT22;15937;50.612;6.656;2023-08-01T21:57:00;16.90;99.90
26270;DHT22;15937;50.612;6.656;2023-08-01T22:01:02;16.90;99.90
26270;DHT22;15937;50.612;6.656;2023-08-01T22:05:05;16.80;99.90
26270;DHT22;15937;50.612;6.656;2023-08-01T22:09:07;16.60;99.90
26270;DHT22;15937;50.612;6.656;2023-08-01T22:13:09;16.60;99.90
26270;DHT22;15937;50.612;6.656;2023-08-01T22:17:10;16.60;99.90
26270;DHT22;15937;50.612;6.656;2023-08-01T22:21:13;16.60;99.90
26270;DHT22;15937;50.612;6.656;2023-08-01T22:25:15;16.40;99.90
26270;DHT22;15937;50.612;6.656;2023-08-01T22:29:17;16.40;99.90
26270;DHT22;15937;50.612;6.656;2023-08-01T22:33:18;16.40;99.90
26270;DHT22;15937;50.612;6.656;2023-08-01T22:37:20;16.30;99.90
26270;DHT22;15937;50.612;6.656;2023-08-01T22:41:22;16.30;99.90
26270;DHT22;15937;50.612;6.656;2023-08-01T22:45:24;16.30;99.90
26270;DHT22;15937;50.612;6.656;2023-08-01T22:49:25;16.30;99.90
26270;DHT22;15937;50.612;6.656;2023-08-01T22:53:29;16.30;99.90
26270;DHT22;15937;50.612;6.656;2023-08-01T22:57:30;16.30;99.90
26270;DHT22;15937;50.612;6.656;2023-08-01T23:01:32;16.20;99.90
26270;DHT22;15937;50.612;6.656;2023-08-01T23:05:35;16.20;99.90
26270;DHT22;15937;50.612;6.656;2023-08-01T23:09:37;16.30;99.90
26270;DHT22;15937;50.612;6.656;2023-08-01T23:13:56;16.20;99.90
26270;DHT22;15937;50.612;6.656;2023-08-01T23:17:57;16.20;99.90
26270;DHT22;15937;50.612;6.656;2023-08-01T23:21:59;16.10;99.90
26270;DHT22;15937;50.612;6.656;2023-08-01T23:30:07;16.30;99.90
26270;DHT22;15937;50.612;6.656;2023-08-01T23:34:10;16.20;99.90
26270;DHT22;15937;50.612;6.656;2023-08-01T23:38:11;16.20;99.90
26270;DHT22;15937;50.612;6.656;2023-08-01T23:42:13;16.20;99.90
26270;DHT22;15937;50.612;6.656;2023-08-01T23:46:15;16.20;99.90
26270;DHT22;15937;50.612;6.656;2023-08-01T23:50:17;16.30;99.90
26270;DHT22;15937;50.612;6.656;2023-08-01T23:54:21;16.30;99.90
26270;DHT22;15937;50.612;6.656;2023-08-01T23:58:22;16.30;99.90
